Time;durP1;ratioP1;P1;durP2;ratioP2;P2;SDS_P1;SDS_P2;PMS_P1;PMS_P2;Temp;Humidity;BMP_temperature;BMP_pressure;BME280_temperature;BME280_humidity;BME280_pressure;Samples;Min_cycle;Max_cycle;Signal;HPM_P1;HPM_P2
2022/05/25 00:00:18;;;;;;;;;2.00;2.00;;;;;15.25;59.12;100884.28;5031970;28;45593;-74
2022/05/25 00:02:44;;;;;;;;;4.00;4.00;;;;;15.25;59.28;100887.84;5032437;28;45410;-74
2022/05/25 00:05:12;;;;;;;;;2.50;2.00;;;;;15.26;59.45;100886.00;5028378;28;45495;-75
2022/05/25 00:07:38;;;;;;;;;3.25;3.25;;;;;15.23;59.44;100886.25;5012665;28;46253;-75
2022/05/25 00:10:04;;;;;;;;;3.00;3.00;;;;;15.26;59.29;100894.91;5014530;28;45416;-75
2022/05/25 00:12:29;;;;;;;;;5.25;4.50;;;;;15.24;59.47;100890.63;5032673;28;46097;-75
2022/05/25 00:14:55;;;;;;;;;4.00;3.00;;;;;15.23;59.16;100887.09;5014842;28;45824;-76
2022/05/25 00:17:20;;;;;;;;;5.00;3.25;;;;;15.20;59.29;100881.97;5032978;28;58052;-75
2022/05/25 00:20:00;;;;;;;;;2.25;2.25;;;;;15.16;59.51;100871.56;5032527;28;45653;-75
2022/05/25 00:22:28;;;;;;;;;1.00;1.00;;;;;15.17;59.53;100890.19;5032436;28;45384;-75
2022/05/25 00:24:58;;;;;;;;;2.25;1.75;;;;;15.16;59.83;100888.50;5032310;28;46817;-75
2022/05/25 00:27:24;;;;;;;;;1.25;1.25;;;;;15.11;60.38;100887.97;5032483;28;46139;-75
2022/05/25 00:29:49;;;;;;;;;1.00;1.00;;;;;15.05;60.04;100883.06;5012898;28;45906;-75
2022/05/25 00:32:14;;;;;;;;;2.00;2.00;;;;;15.02;60.34;100880.59;5015304;28;45412;-76
2022/05/25 00:34:40;;;;;;;;;2.25;2.25;;;;;15.03;60.51;100885.00;5032283;28;45461;-75
2022/05/25 00:37:05;;;;;;;;;2.00;2.00;;;;;14.97;60.55;100886.28;5030493;28;47310;-76
2022/05/25 00:39:31;;;;;;;;;1.75;1.75;;;;;14.96;60.37;100883.72;5032906;28;46093;-75
2022/05/25 00:41:56;;;;;;;;;1.00;1.00;;;;;14.95;60.82;100898.09;5033349;28;45302;-75
2022/05/25 00:44:22;;;;;;;;;2.00;2.00;;;;;14.93;60.87;100894.66;5034156;28;45285;-75
2022/05/25 00:46:47;;;;;;;;;0.50;0.50;;;;;14.89;61.00;100897.56;5033167;28;45270;-75
2022/05/25 00:49:35;;;;;;;;;2.00;2.00;;;;;14.88;61.22;100906.56;5013440;28;45830;-77
2022/05/25 00:52:05;;;;;;;;;1.75;1.75;;;;;14.87;61.25;100910.22;5033068;28;45412;-75
2022/05/25 00:54:33;;;;;;;;;1.75;1.75;;;;;14.87;61.51;100909.38;5033101;28;46232;-76
2022/05/25 00:57:13;;;;;;;;;2.50;2.00;;;;;14.87;61.17;100912.91;5031530;28;46559;-75
2022/05/25 00:59:53;;;;;;;;;2.00;2.00;;;;;14.84;61.60;100914.94;5026758;28;45608;-76
2022/05/25 01:02:18;;;;;;;;;2.00;2.00;;;;;14.86;61.33;100916.56;5034011;28;45581;-75
2022/05/25 01:04:44;;;;;;;;;1.00;1.00;;;;;14.85;61.32;100905.94;5033129;28;45388;-76
2022/05/25 01:07:28;;;;;;;;;3.00;2.00;;;;;14.84;61.48;100910.47;5032614;28;48470;-76
2022/05/25 01:10:10;;;;;;;;;2.25;2.00;;;;;14.82;61.37;100917.75;5032903;28;45457;-75
2022/05/25 01:13:05;;;;;;;;;1.50;1.50;;;;;14.79;61.37;100915.28;5031455;28;45396;-77
2022/05/25 01:16:09;;;;;;;;;2.75;2.75;;;;;14.73;61.69;100917.53;5029648;28;45383;-76
2022/05/25 01:19:16;;;;;;;;;1.75;1.75;;;;;14.73;61.98;100920.22;5029639;28;45556;-76
2022/05/25 01:22:00;;;;;;;;;2.00;2.00;;;;;14.69;61.97;100927.59;4976701;28;45413;-76
2022/05/25 01:25:02;;;;;;;;;2.25;2.25;;;;;14.67;61.97;100929.53;4988729;28;45616;-77
2022/05/25 01:27:38;;;;;;;;;2.00;2.00;;;;;14.62;62.47;100923.63;4993743;28;45450;-76
2022/05/25 01:30:25;;;;;;;;;3.00;3.00;;;;;14.62;62.33;100931.69;4986655;28;45442;-76
2022/05/25 01:33:05;;;;;;;;;1.00;1.00;;;;;14.58;62.36;100931.06;4992731;28;45578;-76
2022/05/25 01:35:46;;;;;;;;;1.00;1.00;;;;;14.53;62.57;100927.81;4992705;28;45410;-76
2022/05/25 01:38:24;;;;;;;;;2.00;2.00;;;;;14.54;62.90;100931.38;4991170;28;45433;-76
2022/05/25 01:41:06;;;;;;;;;1.25;1.25;;;;;14.48;63.03;100925.44;4989744;28;45528;-76
2022/05/25 01:43:47;;;;;;;;;3.25;3.25;;;;;14.48;63.24;100936.16;4976497;28;45560;-76
2022/05/25 01:46:24;;;;;;;;;1.50;1.50;;;;;14.48;62.93;100941.53;4992374;28;45592;-77
2022/05/25 01:48:53;;;;;;;;;2.00;2.00;;;;;14.44;63.33;100944.50;4993308;28;45562;-76
2022/05/25 01:51:40;;;;;;;;;1.50;1.50;;;;;14.44;62.94;100949.88;4993800;28;45654;-76
2022/05/25 01:54:09;;;;;;;;;2.00;2.00;;;;;14.42;63.24;100949.13;4988677;28;45509;-76
2022/05/25 01:56:40;;;;;;;;;5.00;5.00;;;;;14.39;63.64;100949.34;4990688;28;45408;-76
2022/05/25 01:59:09;;;;;;;;;3.75;3.75;;;;;14.37;63.27;100946.75;5004317;28;45737;-77
2022/05/25 02:01:35;;;;;;;;;3.50;3.50;;;;;14.32;63.56;100937.31;5035336;28;45536;-77
2022/05/25 02:07:08;;;;;;;;;3.00;2.00;;;;;14.33;63.90;100955.94;5035590;28;45484;-76
2022/05/25 02:09:59;;;;;;;;;2.50;2.00;;;;;14.32;63.79;100956.94;5029494;28;45306;-77
2022/05/25 02:12:27;;;;;;;;;4.00;4.00;;;;;14.31;63.86;100948.97;5035325;28;45612;-76
2022/05/25 02:15:05;;;;;;;;;3.50;3.50;;;;;14.26;63.75;100950.19;5035714;28;45280;-76
2022/05/25 02:17:49;;;;;;;;;4.75;2.50;;;;;14.25;63.80;100947.59;5035113;28;45467;-74
2022/05/25 02:20:35;;;;;;;;;4.75;4.25;;;;;14.23;63.77;100958.41;5036528;28;45296;-76
2022/05/25 02:23:08;;;;;;;;;2.00;2.00;;;;;14.25;64.28;100963.66;5017767;28;46280;-76
2022/05/25 02:25:47;;;;;;;;;2.00;2.00;;;;;14.24;64.40;100964.63;5034750;28;45417;-76
2022/05/25 02:28:19;;;;;;;;;2.75;2.75;;;;;14.23;64.08;100966.44;5034304;28;45499;-74
2022/05/25 02:30:51;;;;;;;;;1.25;1.25;;;;;14.20;64.41;100968.47;5034997;28;45634;-75
2022/05/25 02:33:34;;;;;;;;;2.00;2.00;;;;;14.19;64.04;100964.06;5034918;28;45820;-76
2022/05/25 02:36:01;;;;;;;;;3.25;2.25;;;;;14.16;64.61;100962.44;5012280;28;45593;-76
2022/05/25 02:38:28;;;;;;;;;3.00;3.00;;;;;14.17;64.32;100966.00;5032134;28;45440;-76
2022/05/25 02:41:13;;;;;;;;;3.00;3.00;;;;;14.14;64.65;100967.09;5034797;28;45647;-76
2022/05/25 02:43:39;;;;;;;;;3.75;3.00;;;;;14.15;64.63;100967.94;5035037;28;45589;-74
2022/05/25 02:46:06;;;;;;;;;7.00;2.75;;;;;14.13;64.60;100970.69;5034572;28;45785;-76
2022/05/25 02:48:32;;;;;;;;;2.50;2.50;;;;;14.10;64.55;100964.72;5035222;28;45462;-76
2022/05/25 02:50:58;;;;;;;;;1.50;1.50;;;;;14.11;64.01;100977.13;5035023;28;45550;-76
2022/05/25 02:53:23;;;;;;;;;3.00;3.00;;;;;14.11;64.55;100979.78;5035706;28;45380;-76
2022/05/25 02:55:52;;;;;;;;;2.00;2.00;;;;;14.11;64.70;100982.47;5034743;28;45391;-76
2022/05/25 02:58:17;;;;;;;;;2.25;2.25;;;;;14.11;64.62;100985.16;5016181;28;45305;-76
2022/05/25 03:00:44;;;;;;;;;3.50;2.00;;;;;14.12;64.67;100984.19;5034644;28;45467;-76
2022/05/25 03:03:12;;;;;;;;;2.00;2.00;;;;;14.09;65.23;100982.56;5034588;28;45223;-76
2022/05/25 03:05:38;;;;;;;;;2.25;2.25;;;;;14.05;64.86;100983.75;5034943;28;45495;-76
2022/05/25 03:08:05;;;;;;;;;2.00;2.00;;;;;14.00;64.90;100973.34;5035060;28;45732;-76
2022/05/25 03:10:31;;;;;;;;;1.00;1.00;;;;;14.02;65.06;100992.84;5034773;28;45351;-76
2022/05/25 03:12:56;;;;;;;;;2.00;2.00;;;;;13.99;65.14;100987.69;5034655;28;45636;-76
2022/05/25 03:15:21;;;;;;;;;3.00;3.00;;;;;14.00;65.01;100994.75;5034890;28;46378;-76
2022/05/25 03:17:47;;;;;;;;;4.00;4.00;;;;;14.01;64.83;101000.97;5034959;28;45356;-76
2022/05/25 03:20:13;;;;;;;;;3.00;3.00;;;;;14.01;64.78;101007.19;5035803;28;45348;-76
2022/05/25 03:22:44;;;;;;;;;4.00;4.00;;;;;13.99;64.67;101005.56;5017388;28;46212;-76
2022/05/25 03:25:13;;;;;;;;;5.00;4.00;;;;;13.99;64.85;101011.75;5012907;28;45577;-76
2022/05/25 03:27:38;;;;;;;;;3.00;3.00;;;;;13.95;65.02;101012.94;5023900;28;45387;-76
2022/05/25 03:30:06;;;;;;;;;3.00;3.00;;;;;13.95;64.97;101014.75;5020314;28;45261;-76
2022/05/25 03:32:31;;;;;;;;;3.00;3.00;;;;;13.91;64.79;101022.13;5037823;28;47701;-77
2022/05/25 03:34:57;;;;;;;;;2.50;2.00;;;;;13.89;64.99;101040.09;5023899;28;45279;-76
2022/05/25 03:37:23;;;;;;;;;2.00;2.00;;;;;13.87;65.10;101025.97;5023847;28;45480;-76
2022/05/25 03:39:48;;;;;;;;;1.50;1.50;;;;;13.87;65.32;101042.00;5023946;28;45341;-76
2022/05/25 03:42:16;;;;;;;;;3.00;3.00;;;;;13.84;64.99;101028.84;5021322;28;45839;-76
2022/05/25 03:44:41;;;;;;;;;2.00;2.00;;;;;13.85;65.33;101038.56;5019350;28;45365;-76
2022/05/25 03:47:07;;;;;;;;;2.00;2.00;;;;;13.83;65.38;101037.84;5022628;28;45416;-76
2022/05/25 03:49:32;;;;;;;;;3.00;3.00;;;;;13.82;65.45;101045.00;5023839;28;45349;-77
2022/05/25 03:51:58;;;;;;;;;2.00;2.00;;;;;13.80;65.40;101046.03;5005818;28;47402;-76
2022/05/25 03:54:23;;;;;;;;;3.00;3.00;;;;;13.79;65.56;101060.41;5022537;28;45520;-76
2022/05/25 03:56:49;;;;;;;;;2.50;2.50;;;;;13.77;65.98;101068.50;5019224;28;45403;-76
2022/05/25 03:59:14;;;;;;;;;2.75;2.75;;;;;13.77;65.48;101076.53;5021750;28;45503;-76
2022/05/25 04:01:40;;;;;;;;;3.00;3.00;;;;;13.76;65.55;101072.16;5005575;28;46969;-76
2022/05/25 04:04:06;;;;;;;;;2.50;2.00;;;;;13.75;65.69;101073.09;5005737;28;45493;-76
2022/05/25 04:06:31;;;;;;;;;2.50;2.50;;;;;13.72;65.87;101067.09;5023472;28;45473;-76
2022/05/25 04:08:56;;;;;;;;;3.00;3.00;;;;;13.71;65.44;101068.03;5018997;28;45588;-77
2022/05/25 04:11:22;;;;;;;;;2.75;2.75;;;;;13.73;65.80;101066.13;5020558;28;46388;-76
2022/05/25 04:13:48;;;;;;;;;1.50;1.50;;;;;13.71;65.76;101068.94;5023405;28;45573;-77
2022/05/25 04:16:13;;;;;;;;;2.00;2.00;;;;;13.69;66.26;101061.94;5005794;28;45405;-76
2022/05/25 04:18:39;;;;;;;;;2.00;2.00;;;;;13.66;66.22;101062.97;5023476;28;45380;-76
2022/05/25 04:21:04;;;;;;;;;2.00;2.00;;;;;13.70;66.29;101069.00;5001737;28;47181;-76
2022/05/25 04:23:29;;;;;;;;;2.75;2.75;;;;;13.71;66.51;101074.28;5001641;28;45345;-76
2022/05/25 04:25:56;;;;;;;;;5.00;4.00;;;;;13.71;66.65;101068.03;5005406;28;45377;-76
2022/05/25 04:28:21;;;;;;;;;3.75;3.75;;;;;13.74;66.48;101079.41;5023383;28;45493;-76
2022/05/25 04:30:47;;;;;;;;;4.25;3.00;;;;;13.76;66.77;101080.19;5022907;28;45529;-76
2022/05/25 04:33:13;;;;;;;;;3.00;3.00;;;;;13.79;66.34;101081.81;4998251;28;45436;-76
2022/05/25 04:35:40;;;;;;;;;4.00;4.00;;;;;13.77;66.60;101076.53;4998379;28;45297;-75
2022/05/25 04:38:06;;;;;;;;;4.00;3.75;;;;;13.79;66.36;101089.84;5001817;28;45235;-76
2022/05/25 04:40:35;;;;;;;;;4.25;4.25;;;;;13.79;66.42;101096.03;5002700;28;46179;-76
2022/05/25 04:43:04;;;;;;;;;3.50;3.25;;;;;13.79;66.47;101095.19;5002537;28;45577;-77
2022/05/25 04:45:29;;;;;;;;;2.75;2.75;;;;;13.79;66.60;101103.22;5002209;28;45564;-77
2022/05/25 04:47:57;;;;;;;;;2.50;2.50;;;;;13.79;66.85;101104.06;4996490;28;45462;-76
2022/05/25 04:50:24;;;;;;;;;5.00;4.50;;;;;13.79;66.71;101108.56;5000041;28;46147;-76
2022/05/25 04:52:50;;;;;;;;;3.00;3.00;;;;;13.79;66.54;101105.88;5004085;28;46934;-76
2022/05/25 04:58:01;;;;;;;;;4.00;3.75;;;;;13.80;66.35;101110.28;5005844;28;45300;-76
2022/05/25 05:00:28;;;;;;;;;3.50;3.50;;;;;13.81;67.04;101117.34;5003281;28;47059;-76
2022/05/25 05:02:54;;;;;;;;;4.75;3.75;;;;;13.82;67.12;101113.72;5001219;28;45345;-76
2022/05/25 05:05:20;;;;;;;;;3.00;3.00;;;;;13.83;66.99;101126.16;5003334;28;45149;-76
2022/05/25 05:07:45;;;;;;;;;4.00;3.00;;;;;13.81;67.09;101117.34;5005899;28;45557;-76
2022/05/25 05:10:12;;;;;;;;;3.50;2.50;;;;;13.84;67.25;101123.34;5005728;28;45361;-76
2022/05/25 05:12:39;;;;;;;;;4.50;3.50;;;;;13.82;67.23;101122.59;5005859;28;45530;-76
2022/05/25 05:15:05;;;;;;;;;3.50;3.50;;;;;13.82;67.01;101125.28;5002478;28;45625;-77
2022/05/25 05:17:30;;;;;;;;;3.75;3.75;;;;;13.82;67.26;101119.91;5000684;28;45491;-77
2022/05/25 05:19:56;;;;;;;;;3.75;3.00;;;;;13.84;67.34;101128.72;5006152;28;45352;-77
2022/05/25 05:22:22;;;;;;;;;3.75;3.00;;;;;13.85;67.58;101124.22;5006100;28;45670;-76
2022/05/25 05:24:47;;;;;;;;;5.00;5.00;;;;;13.87;67.28;101133.00;5006282;28;45523;-76
2022/05/25 05:27:12;;;;;;;;;4.00;4.00;;;;;13.88;67.72;101137.41;5003490;28;45493;-76
2022/05/25 05:29:38;;;;;;;;;4.00;3.00;;;;;13.85;67.72;101134.91;5001467;28;45527;-75
2022/05/25 05:32:03;;;;;;;;;6.50;5.00;;;;;13.89;67.86;101141.81;5007660;28;45464;-76
2022/05/25 05:34:29;;;;;;;;;6.50;5.00;;;;;13.93;67.90;101143.34;5008140;28;45430;-75
2022/05/25 05:37:09;;;;;;;;;5.00;4.00;;;;;13.97;68.04;101139.47;5007969;28;45409;-76
2022/05/25 05:39:40;;;;;;;;;5.00;5.00;;;;;13.99;67.97;101147.44;5025746;28;45326;-77
2022/05/25 05:42:10;;;;;;;;;4.75;4.75;;;;;14.01;68.04;101135.66;5021967;28;45470;-76
2022/05/25 05:44:45;;;;;;;;;6.50;5.50;;;;;14.09;68.20;101140.50;5021154;28;45402;-76
2022/05/25 05:47:16;;;;;;;;;6.75;5.75;;;;;14.12;68.32;101134.97;5004112;28;45409;-76
2022/05/25 05:49:42;;;;;;;;;4.75;4.75;;;;;14.10;68.44;101125.34;5025517;28;45512;-76
2022/05/25 05:52:08;;;;;;;;;5.50;5.50;;;;;14.19;67.56;101130.06;5025645;28;47559;-76
2022/05/25 05:54:35;;;;;;;;;3.25;3.25;;;;;14.28;67.11;101124.97;5025581;28;45470;-76
2022/05/25 05:57:00;;;;;;;;;4.00;4.00;;;;;14.36;67.06;101129.84;5021139;28;45360;-76
2022/05/25 05:59:26;;;;;;;;;3.00;3.00;;;;;14.43;66.37;101123.13;5003833;28;47183;-76
2022/05/25 06:01:52;;;;;;;;;4.50;4.50;;;;;14.52;65.82;101126.16;5033512;28;45546;-76
2022/05/25 06:04:18;;;;;;;;;3.00;3.00;;;;;14.55;64.75;101132.22;5030677;28;45439;-75
2022/05/25 06:06:43;;;;;;;;;3.00;3.00;;;;;14.61;64.50;101121.06;5025278;28;45381;-76
2022/05/25 06:09:09;;;;;;;;;5.75;3.25;;;;;14.70;64.35;101130.31;5021916;28;46732;-76
2022/05/25 06:11:41;;;;;;;;;4.00;4.00;;;;;14.78;64.73;101138.69;5020572;28;45343;-76
2022/05/25 06:14:07;;;;;;;;;2.00;2.00;;;;;14.85;64.85;101147.19;5005711;28;45453;-76
2022/05/25 06:19:25;;;;;;;;;4.00;4.00;;;;;14.98;64.17;101147.19;5030601;28;45849;-74
2022/05/25 06:21:56;;;;;;;;;3.00;3.00;;;;;14.99;63.73;101149.78;5024768;28;45520;-74
2022/05/25 06:24:21;;;;;;;;;2.00;2.00;;;;;15.05;62.65;101153.84;5005339;28;45284;-75
2022/05/25 06:26:46;;;;;;;;;4.25;4.25;;;;;15.08;63.02;101153.63;5020255;28;45333;-74
2022/05/25 06:29:16;;;;;;;;;9.25;7.75;;;;;15.11;63.13;101156.13;5023327;28;49395;-74
2022/05/25 06:31:42;;;;;;;;;10.00;7.00;;;;;15.17;63.20;101168.25;5021158;28;45752;-74
2022/05/25 06:34:07;;;;;;;;;6.25;5.25;;;;;15.17;62.74;101174.47;5023671;28;45444;-74
2022/05/25 06:36:32;;;;;;;;;4.50;4.50;;;;;15.27;63.37;101178.25;5024983;28;45372;-74
2022/05/25 06:38:58;;;;;;;;;3.75;2.00;;;;;15.32;62.58;101176.13;5019879;28;46051;-75
2022/05/25 06:41:25;;;;;;;;;3.75;3.00;;;;;15.38;61.96;101182.00;5021663;28;45508;-74
2022/05/25 06:43:50;;;;;;;;;4.00;2.75;;;;;15.46;61.94;101187.69;5024607;28;45281;-74
2022/05/25 06:46:19;;;;;;;;;3.50;3.50;;;;;15.52;61.30;101188.13;5021292;28;45469;-74
2022/05/25 06:48:45;;;;;;;;;4.25;4.25;;;;;15.58;60.67;101192.19;5025528;28;45467;-74
2022/05/25 06:51:32;;;;;;;;;3.00;3.00;;;;;15.65;60.37;101196.19;5027391;28;45385;-74
2022/05/25 06:53:58;;;;;;;;;3.00;3.00;;;;;15.72;60.39;101204.69;5027267;28;45422;-75
2022/05/25 06:56:24;;;;;;;;;7.00;4.00;;;;;15.78;59.77;101201.59;5003236;28;45452;-74
2022/05/25 06:58:52;;;;;;;;;3.25;3.25;;;;;15.83;59.65;101201.28;5005024;28;47590;-76
2022/05/25 07:01:18;;;;;;;;;3.00;3.00;;;;;15.86;58.84;101199.22;5024848;28;45499;-75
2022/05/25 07:03:44;;;;;;;;;1.00;1.00;;;;;15.88;58.29;101191.06;5026171;28;45345;-74
2022/05/25 07:06:11;;;;;;;;;2.00;1.25;;;;;15.94;57.80;101204.03;5026076;28;45592;-74
2022/05/25 07:08:37;;;;;;;;;3.00;2.00;;;;;15.93;57.46;101208.53;5019585;28;45638;-74
2022/05/25 07:11:03;;;;;;;;;2.00;2.00;;;;;15.97;57.38;101210.06;5023688;28;45464;-74
2022/05/25 07:13:30;;;;;;;;;2.00;2.00;;;;;15.98;56.72;101211.75;5023869;28;47160;-74
2022/05/25 07:16:01;;;;;;;;;1.75;1.75;;;;;16.03;56.64;101202.53;5011485;28;45575;-74
2022/05/25 07:18:28;;;;;;;;;1.75;1.75;;;;;16.06;56.35;101205.84;5025472;28;46061;-74
2022/05/25 07:20:57;;;;;;;;;2.50;1.50;;;;;16.09;56.03;101210.13;5019487;28;45438;-74
2022/05/25 07:23:24;;;;;;;;;2.00;2.00;;;;;16.12;56.23;101215.31;5003235;28;45472;-74
2022/05/25 07:25:49;;;;;;;;;3.00;1.50;;;;;16.15;55.87;101215.91;5023871;28;45455;-74
2022/05/25 07:28:14;;;;;;;;;2.00;2.00;;;;;16.23;56.09;101225.25;5006163;28;47537;-74
2022/05/25 07:30:40;;;;;;;;;1.00;1.00;;;;;16.21;55.27;101228.06;5024257;28;45333;-74
2022/05/25 07:33:06;;;;;;;;;1.00;1.00;;;;;16.25;55.59;101234.06;5020093;28;45500;-74
2022/05/25 07:35:31;;;;;;;;;2.00;2.00;;;;;16.29;54.95;101232.88;5019639;28;45391;-73
2022/05/25 07:37:58;;;;;;;;;1.00;1.00;;;;;16.32;55.29;101229.97;5016771;28;47584;-74
2022/05/25 07:40:31;;;;;;;;;2.50;0.50;;;;;16.35;55.19;101232.44;5028831;28;45483;-74
2022/05/25 07:43:02;;;;;;;;;2.00;2.00;;;;;16.38;54.84;101241.13;5032011;28;45455;-74
2022/05/25 07:45:27;;;;;;;;;1.00;1.00;;;;;16.42;54.99;101239.06;5005027;28;45404;-74
2022/05/25 07:47:54;;;;;;;;;1.25;0.50;;;;;16.47;55.01;101239.59;5019860;28;45433;-74
2022/05/25 07:50:21;;;;;;;;;0.50;0.50;;;;;16.50;54.30;101244.75;5025291;28;45297;-74
2022/05/25 07:52:52;;;;;;;;;0.50;0.50;;;;;16.48;54.30;101249.38;5025715;28;45360;-74
2022/05/25 07:55:18;;;;;;;;;1.00;1.00;;;;;16.51;54.47;101243.78;5009112;28;47142;-74
2022/05/25 07:57:44;;;;;;;;;1.00;1.00;;;;;16.54;54.54;101242.69;5007606;28;47430;-74
2022/05/25 08:00:10;;;;;;;;;1.00;1.00;;;;;16.56;54.08;101243.44;5026961;28;45424;-74
2022/05/25 08:05:43;;;;;;;;;0.00;0.00;;;;;16.66;54.04;101249.00;5019691;28;45392;-74
2022/05/25 08:08:18;;;;;;;;;1.00;1.00;;;;;16.68;53.54;101247.91;5021808;28;45620;-74
2022/05/25 08:10:47;;;;;;;;;0.75;0.75;;;;;16.74;53.38;101260.91;5023247;28;45407;-75
2022/05/25 08:13:16;;;;;;;;;1.00;1.00;;;;;16.76;52.78;101253.59;5022802;28;45490;-75
2022/05/25 08:15:43;;;;;;;;;1.00;1.00;;;;;16.75;52.59;101262.63;5005121;28;45393;-75
2022/05/25 08:18:09;;;;;;;;;0.00;0.00;;;;;16.81;52.71;101272.09;5019988;28;45385;-75
2022/05/25 08:20:35;;;;;;;;;0.00;0.00;;;;;16.82;52.90;101276.50;5018654;28;45380;-75
2022/05/25 08:23:06;;;;;;;;;0.50;0.50;;;;;16.85;52.09;101273.59;5022640;28;45329;-75
2022/05/25 08:25:31;;;;;;;;;2.00;0.75;;;;;16.89;52.46;101268.84;5009244;28;45430;-75
2022/05/25 08:27:57;;;;;;;;;0.00;0.00;;;;;16.91;52.38;101267.78;5011009;28;47068;-75
2022/05/25 08:30:22;;;;;;;;;1.75;1.00;;;;;16.96;51.75;101257.53;5004005;28;45364;-75
2022/05/25 08:32:48;;;;;;;;;0.00;0.00;;;;;16.96;51.21;101262.06;5000764;28;45357;-75
2022/05/25 08:35:14;;;;;;;;;0.00;0.00;;;;;16.98;51.36;101260.06;5024976;28;45535;-76
2022/05/25 08:37:43;;;;;;;;;1.00;0.00;;;;;16.97;51.80;101253.00;5027601;28;46367;-76
2022/05/25 08:40:11;;;;;;;;;0.25;0.25;;;;;17.04;51.56;101259.63;5008772;28;45670;-76
2022/05/25 08:42:47;;;;;;;;;0.50;0.50;;;;;17.10;51.04;101255.63;5034003;28;45711;-76
2022/05/25 08:45:13;;;;;;;;;0.25;0.25;;;;;17.13;51.28;101250.88;5019841;28;45401;-76
2022/05/25 08:47:47;;;;;;;;;1.00;1.00;;;;;17.17;51.34;101262.25;5023167;28;45563;-76
2022/05/25 08:50:12;;;;;;;;;1.25;1.25;;;;;17.21;50.76;101261.06;5008571;28;45439;-76
2022/05/25 08:52:38;;;;;;;;;0.50;0.50;;;;;17.24;50.15;101260.81;5012856;28;45514;-76
2022/05/25 08:55:08;;;;;;;;;0.25;0.25;;;;;17.26;50.33;101258.88;5028131;28;45558;-76
2022/05/25 08:57:41;;;;;;;;;1.25;1.00;;;;;17.28;50.04;101256.06;5025901;28;45441;-76
2022/05/25 09:00:17;;;;;;;;;0.00;0.00;;;;;17.30;49.74;101259.50;5031531;28;45500;-76
2022/05/25 09:03:22;;;;;;;;;1.50;1.50;;;;;17.35;49.71;101263.56;5007969;28;45579;-76
2022/05/25 09:05:57;;;;;;;;;0.00;0.00;;;;;17.40;48.74;101274.81;5023214;28;45488;-76
2022/05/25 09:08:35;;;;;;;;;0.00;0.00;;;;;17.39;48.61;101274.94;5024804;28;46187;-76
2022/05/25 09:11:16;;;;;;;;;1.25;0.00;;;;;17.43;48.55;101262.97;5024725;28;45492;-76
2022/05/25 09:14:02;;;;;;;;;0.00;0.00;;;;;17.50;48.35;101266.03;5012350;28;45542;-76
2022/05/25 09:16:31;;;;;;;;;0.00;0.00;;;;;17.54;47.87;101271.06;5025063;28;45460;-77
2022/05/25 09:19:15;;;;;;;;;1.00;1.00;;;;;17.60;46.86;101275.13;5025457;28;45370;-75
2022/05/25 09:21:58;;;;;;;;;1.25;1.25;;;;;17.62;47.07;101270.47;5025198;28;45348;-76
2022/05/25 09:24:26;;;;;;;;;0.00;0.00;;;;;17.64;47.12;101269.38;5024957;28;45623;-75
2022/05/25 09:26:52;;;;;;;;;1.00;1.00;;;;;17.68;47.03;101259.25;5015336;28;45583;-76
2022/05/25 09:29:19;;;;;;;;;0.00;0.00;;;;;17.75;46.47;101273.06;5008180;28;48339;-75
2022/05/25 09:31:50;;;;;;;;;1.00;1.00;;;;;17.76;46.60;101267.56;5025685;28;45543;-76
2022/05/25 09:34:41;;;;;;;;;0.00;0.00;;;;;17.82;45.77;101261.75;5025971;28;45423;-76
2022/05/25 09:37:29;;;;;;;;;0.50;0.00;;;;;17.85;45.18;101257.97;5027214;28;45384;-76
2022/05/25 09:39:54;;;;;;;;;0.00;0.00;;;;;17.88;44.87;101263.09;5031205;28;46389;-76
2022/05/25 09:42:21;;;;;;;;;0.50;0.00;;;;;17.91;44.86;101262.00;5027105;28;48801;-76
2022/05/25 09:44:52;;;;;;;;;0.00;0.00;;;;;17.93;44.82;101260.03;5019061;28;45425;-77
2022/05/25 09:47:44;;;;;;;;;0.00;0.00;;;;;17.99;44.00;101259.53;5008388;28;45419;-76
2022/05/25 09:50:32;;;;;;;;;0.00;0.00;;;;;18.03;44.50;101266.41;5016895;28;45401;-76
2022/05/25 09:53:01;;;;;;;;;0.00;0.00;;;;;18.05;44.70;101261.75;5029191;28;45366;-76
2022/05/25 09:55:42;;;;;;;;;0.00;0.00;;;;;18.15;44.13;101260.03;5029416;28;45455;-76
2022/05/25 09:58:36;;;;;;;;;0.00;0.00;;;;;18.20;44.10;101262.38;5010852;28;45308;-76
2022/05/25 10:01:30;;;;;;;;;0.00;0.00;;;;;18.27;43.22;101263.59;5010224;28;47013;-76
2022/05/25 10:03:56;;;;;;;;;0.25;0.00;;;;;18.33;42.58;101262.22;5007675;28;45555;-76
2022/05/25 10:06:29;;;;;;;;;0.00;0.00;;;;;18.36;43.09;101270.94;5027332;28;45297;-76
2022/05/25 10:09:06;;;;;;;;;0.00;0.00;;;;;18.45;42.03;101267.50;5028246;28;45639;-76
2022/05/25 10:11:43;;;;;;;;;0.00;0.00;;;;;18.49;41.64;101271.66;5027649;28;46678;-76
2022/05/25 10:14:31;;;;;;;;;0.00;0.00;;;;;18.57;41.76;101262.97;5007985;28;46294;-76
2022/05/25 10:17:05;;;;;;;;;0.00;0.00;;;;;18.64;40.81;101264.19;5028883;28;45424;-76
2022/05/25 10:19:33;;;;;;;;;0.00;0.00;;;;;18.62;41.33;101270.69;5029103;28;45511;-76
2022/05/25 10:21:59;;;;;;;;;0.00;0.00;;;;;18.70;41.30;101276.28;5027966;28;46831;-77
2022/05/25 10:24:36;;;;;;;;;0.00;0.00;;;;;18.76;40.99;101267.75;5027166;28;45444;-76
2022/05/25 10:27:03;;;;;;;;;0.00;0.00;;;;;18.80;40.79;101268.34;5027782;28;45453;-76
2022/05/25 10:38:12;;;;;;;;;0.00;0.00;;;;;18.97;41.02;101269.63;5028607;28;45896;-76
2022/05/25 10:40:44;;;;;;;;;0.00;0.00;;;;;19.05;41.12;101272.53;5028058;28;45455;-76
2022/05/25 10:43:22;;;;;;;;;0.00;0.00;;;;;19.12;40.87;101268.34;5027456;28;45472;-76
2022/05/25 10:45:53;;;;;;;;;0.00;0.00;;;;;19.24;41.39;101264.66;5010694;28;46647;-76
2022/05/25 10:48:43;;;;;;;;;0.00;0.00;;;;;19.33;41.96;101269.22;5025207;28;45298;-76
2022/05/25 10:51:15;;;;;;;;;2.00;1.00;;;;;19.46;40.95;101266.38;5008448;28;45528;-76
2022/05/25 10:56:40;;;;;;;;;1.00;0.00;;;;;19.76;40.75;101270.16;5026779;28;45313;-76
2022/05/25 10:59:31;;;;;;;;;0.00;0.00;;;;;19.86;39.63;101259.41;5007638;28;45354;-76
2022/05/25 11:02:09;;;;;;;;;0.00;0.00;;;;;19.93;39.53;101260.56;5027805;28;45562;-76
2022/05/25 11:04:55;;;;;;;;;0.00;0.00;;;;;20.05;39.33;101264.91;5014313;28;47170;-76
2022/05/25 11:07:26;;;;;;;;;0.00;0.00;;;;;20.16;39.68;101262.13;5027890;28;45427;-76
2022/05/25 11:10:16;;;;;;;;;0.00;0.00;;;;;20.26;39.07;101262.16;5010284;28;45570;-76
2022/05/25 11:12:48;;;;;;;;;1.00;0.00;;;;;20.36;38.64;101263.03;5008473;28;45539;-76
2022/05/25 11:15:19;;;;;;;;;1.00;1.00;;;;;20.52;38.76;101267.94;5003804;28;47586;-76
2022/05/25 11:18:18;;;;;;;;;0.00;0.00;;;;;20.68;37.95;101280.09;5012934;28;45558;-76
2022/05/25 11:21:11;;;;;;;;;0.00;0.00;;;;;20.78;37.77;101275.56;5033925;28;45437;-76
2022/05/25 11:23:36;;;;;;;;;1.00;0.00;;;;;20.84;38.05;101269.59;5015262;28;45431;-76
2022/05/25 11:26:28;;;;;;;;;0.00;0.00;;;;;20.88;38.34;101272.88;5022098;28;45453;-76
2022/05/25 11:29:30;;;;;;;;;0.00;0.00;;;;;20.98;38.26;101263.78;5006149;28;45287;-76
2022/05/25 11:32:17;;;;;;;;;0.75;0.75;;;;;21.08;37.69;101271.91;5023606;28;45306;-76
2022/05/25 11:35:11;;;;;;;;;0.00;0.00;;;;;21.16;37.51;101276.63;5006118;28;45539;-76
2022/05/25 11:38:19;;;;;;;;;0.00;0.00;;;;;21.20;37.09;101264.50;5023774;28;46207;-76
2022/05/25 11:41:09;;;;;;;;;0.00;0.00;;;;;21.19;36.94;101265.50;4948012;28;45488;-76
2022/05/25 11:43:56;;;;;;;;;0.00;0.00;;;;;21.18;37.13;101274.63;4947579;28;45489;-77
2022/05/25 11:46:24;;;;;;;;;0.00;0.00;;;;;21.18;36.17;101272.75;4929119;28;45516;-76
2022/05/25 11:49:28;;;;;;;;;0.00;0.00;;;;;21.19;36.21;101265.50;4944422;28;45521;-76
2022/05/25 11:52:11;;;;;;;;;0.75;0.00;;;;;21.14;36.88;101260.53;4903965;28;45403;-76
2022/05/25 11:55:15;;;;;;;;;1.00;0.00;;;;;21.26;36.92;101259.38;4896382;28;45529;-76
2022/05/25 11:58:11;;;;;;;;;1.00;1.00;;;;;21.38;36.78;101260.09;4912075;28;45525;-76
2022/05/25 12:00:43;;;;;;;;;2.00;0.00;;;;;21.43;37.20;101267.78;4911858;28;45537;-75
2022/05/25 12:03:11;;;;;;;;;0.00;0.00;;;;;21.52;36.50;101269.66;4913589;28;45497;-75
2022/05/25 12:06:16;;;;;;;;;0.00;0.00;;;;;21.57;37.19;101274.63;4906412;28;45484;-75
2022/05/25 12:09:00;;;;;;;;;0.00;0.00;;;;;21.69;36.78;101270.75;4898613;28;45442;-76